sensor_id;sensor_type;location;lat;lon;timestamp;pressure;altitude;pressure_sealevel;temperature;humidity
12360;BME280;6244;51.460;7.090;2023-04-09T00:03:00;101624.00;;;7.44;76.84
12360;BME280;6244;51.460;7.090;2023-04-09T00:07:57;101625.25;;;7.63;76.36
12360;BME280;6244;51.460;7.090;2023-04-09T00:12:53;101627.84;;;7.65;75.79
12360;BME280;6244;51.460;7.090;2023-04-09T00:17:52;101622.69;;;7.62;76.40
12360;BME280;6244;51.460;7.090;2023-04-09T00:22:48;101620.91;;;7.64;76.05
12360;BME280;6244;51.460;7.090;2023-04-09T00:27:45;101616.56;;;7.63;75.33
12360;BME280;6244;51.460;7.090;2023-04-09T00:32:42;101613.97;;;7.63;75.37
12360;BME280;6244;51.460;7.090;2023-04-09T00:37:40;101608.00;;;7.58;75.39
12360;BME280;6244;51.460;7.090;2023-04-09T00:42:37;101609.72;;;7.59;75.11
12360;BME280;6244;51.460;7.090;2023-04-09T00:47:34;101612.44;;;7.53;74.70
12360;BME280;6244;51.460;7.090;2023-04-09T00:52:31;101609.13;;;7.46;74.37
12360;BME280;6244;51.460;7.090;2023-04-09T00:57:29;101603.97;;;7.43;74.62
12360;BME280;6244;51.460;7.090;2023-04-09T01:02:26;101607.63;;;7.36;74.73
12360;BME280;6244;51.460;7.090;2023-04-09T01:07:30;101608.53;;;7.35;74.69
12360;BME280;6244;51.460;7.090;2023-04-09T01:12:36;101601.59;;;7.34;74.73
12360;BME280;6244;51.460;7.090;2023-04-09T01:17:37;101600.84;;;7.27;74.45
12360;BME280;6244;51.460;7.090;2023-04-09T01:22:44;101600.06;;;7.24;75.18
12360;BME280;6244;51.460;7.090;2023-04-09T01:27:54;101601.91;;;7.19;74.77
12360;BME280;6244;51.460;7.090;2023-04-09T01:32:56;101605.44;;;7.16;74.78
12360;BME280;6244;51.460;7.090;2023-04-09T01:37:54;101605.47;;;7.15;74.64
12360;BME280;6244;51.460;7.090;2023-04-09T01:42:53;101602.97;;;7.10;74.68
12360;BME280;6244;51.460;7.090;2023-04-09T01:47:50;101600.47;;;7.04;74.63
12360;BME280;6244;51.460;7.090;2023-04-09T01:52:49;101601.56;;;6.95;75.23
12360;BME280;6244;51.460;7.090;2023-04-09T01:57:46;101605.97;;;6.92;74.97
12360;BME280;6244;51.460;7.090;2023-04-09T02:02:47;101599.84;;;6.93;74.96
12360;BME280;6244;51.460;7.090;2023-04-09T02:07:51;101603.38;;;6.90;74.61
12360;BME280;6244;51.460;7.090;2023-04-09T02:12:50;101602.59;;;6.87;74.87
12360;BME280;6244;51.460;7.090;2023-04-09T02:17:47;101597.41;;;6.85;74.88
12360;BME280;6244;51.460;7.090;2023-04-09T02:22:44;101593.97;;;6.83;74.86
12360;BME280;6244;51.460;7.090;2023-04-09T02:27:42;101583.50;;;6.85;74.91
12360;BME280;6244;51.460;7.090;2023-04-09T02:32:38;101584.41;;;6.84;74.94
12360;BME280;6244;51.460;7.090;2023-04-09T02:37:35;101587.06;;;6.82;74.92
12360;BME280;6244;51.460;7.090;2023-04-09T02:42:31;101578.38;;;6.80;74.80
12360;BME280;6244;51.460;7.090;2023-04-09T02:47:29;101576.88;;;6.70;74.87
12360;BME280;6244;51.460;7.090;2023-04-09T02:52:25;101572.59;;;6.66;74.63
12360;BME280;6244;51.460;7.090;2023-04-09T02:57:22;101563.13;;;6.62;74.80
12360;BME280;6244;51.460;7.090;2023-04-09T03:02:18;101565.81;;;6.56;75.09
12360;BME280;6244;51.460;7.090;2023-04-09T03:07:16;101559.16;;;6.41;75.59
12360;BME280;6244;51.460;7.090;2023-04-09T03:12:13;101559.09;;;6.44;75.37
12360;BME280;6244;51.460;7.090;2023-04-09T03:17:10;101552.22;;;6.41;75.41
12360;BME280;6244;51.460;7.090;2023-04-09T03:22:06;101549.59;;;6.41;75.66
12360;BME280;6244;51.460;7.090;2023-04-09T03:27:04;101552.22;;;6.41;75.52
12360;BME280;6244;51.460;7.090;2023-04-09T03:32:01;101547.06;;;6.38;76.36
12360;BME280;6244;51.460;7.090;2023-04-09T03:36:57;101539.19;;;6.41;74.28
12360;BME280;6244;51.460;7.090;2023-04-09T03:41:54;101544.69;;;6.26;73.66
12360;BME280;6244;51.460;7.090;2023-04-09T03:46:53;101538.69;;;6.23;73.41
12360;BME280;6244;51.460;7.090;2023-04-09T03:51:50;101534.38;;;6.20;73.81
12360;BME280;6244;51.460;7.090;2023-04-09T04:01:53;101537.88;;;6.19;73.63
12360;BME280;6244;51.460;7.090;2023-04-09T04:06:49;101539.63;;;6.18;73.53
12360;BME280;6244;51.460;7.090;2023-04-09T04:11:46;101544.09;;;6.12;72.95
12360;BME280;6244;51.460;7.090;2023-04-09T04:16:42;101548.50;;;6.07;73.39
12360;BME280;6244;51.460;7.090;2023-04-09T04:21:40;101545.88;;;6.10;72.85
12360;BME280;6244;51.460;7.090;2023-04-09T04:26:38;101549.56;;;5.98;73.55
12360;BME280;6244;51.460;7.090;2023-04-09T04:31:34;101549.75;;;5.86;74.26
12360;BME280;6244;51.460;7.090;2023-04-09T04:36:31;101556.75;;;5.81;74.95
12360;BME280;6244;51.460;7.090;2023-04-09T04:41:29;101553.38;;;5.76;75.81
12360;BME280;6244;51.460;7.090;2023-04-09T04:46:25;101550.22;;;5.55;75.38
12360;BME280;6244;51.460;7.090;2023-04-09T04:51:22;101550.38;;;5.48;75.64
12360;BME280;6244;51.460;7.090;2023-04-09T04:56:18;101560.28;;;5.24;74.91
12360;BME280;6244;51.460;7.090;2023-04-09T05:01:16;101556.81;;;5.24;75.13
12360;BME280;6244;51.460;7.090;2023-04-09T05:06:13;101556.72;;;5.28;74.68
12360;BME280;6244;51.460;7.090;2023-04-09T05:11:10;101555.09;;;5.23;73.87
12360;BME280;6244;51.460;7.090;2023-04-09T05:16:07;101551.94;;;5.59;72.78
12360;BME280;6244;51.460;7.090;2023-04-09T05:21:05;101561.38;;;5.65;72.35
12360;BME280;6244;51.460;7.090;2023-04-09T05:26:02;101567.78;;;5.43;74.15
12360;BME280;6244;51.460;7.090;2023-04-09T05:30:58;101555.41;;;5.57;73.83
12360;BME280;6244;51.460;7.090;2023-04-09T05:35:55;101554.03;;;5.33;75.71
12360;BME280;6244;51.460;7.090;2023-04-09T05:40:53;101564.56;;;5.27;76.85
12360;BME280;6244;51.460;7.090;2023-04-09T05:45:49;101563.38;;;5.48;76.60
12360;BME280;6244;51.460;7.090;2023-04-09T05:50:48;101554.53;;;5.59;74.54
12360;BME280;6244;51.460;7.090;2023-04-09T05:55:45;101557.97;;;5.62;73.94
12360;BME280;6244;51.460;7.090;2023-04-09T06:00:44;101562.56;;;5.43;73.86
12360;BME280;6244;51.460;7.090;2023-04-09T06:05:43;101566.84;;;5.48;74.47
12360;BME280;6244;51.460;7.090;2023-04-09T06:10:41;101560.06;;;5.38;75.24
12360;BME280;6244;51.460;7.090;2023-04-09T06:15:37;101548.56;;;5.51;75.30
12360;BME280;6244;51.460;7.090;2023-04-09T06:20:36;101556.13;;;5.67;74.32
12360;BME280;6244;51.460;7.090;2023-04-09T06:25:32;101550.22;;;5.58;74.59
12360;BME280;6244;51.460;7.090;2023-04-09T06:30:48;101558.63;;;5.74;75.23
12360;BME280;6244;51.460;7.090;2023-04-09T06:35:47;101563.72;;;5.80;75.74
12360;BME280;6244;51.460;7.090;2023-04-09T06:40:43;101577.22;;;6.04;75.94
12360;BME280;6244;51.460;7.090;2023-04-09T06:45:40;101578.81;;;6.12;75.87
12360;BME280;6244;51.460;7.090;2023-04-09T06:50:36;101581.28;;;6.20;76.37
12360;BME280;6244;51.460;7.090;2023-04-09T06:55:34;101575.59;;;6.44;76.22
12360;BME280;6244;51.460;7.090;2023-04-09T07:00:31;101571.78;;;6.62;76.21
12360;BME280;6244;51.460;7.090;2023-04-09T07:05:27;101577.75;;;6.67;76.48
12360;BME280;6244;51.460;7.090;2023-04-09T07:10:24;101584.44;;;6.81;76.51
12360;BME280;6244;51.460;7.090;2023-04-09T07:15:23;101579.66;;;7.02;76.78
12360;BME280;6244;51.460;7.090;2023-04-09T07:20:19;101586.06;;;7.26;76.09
12360;BME280;6244;51.460;7.090;2023-04-09T07:25:16;101588.00;;;7.55;76.34
12360;BME280;6244;51.460;7.090;2023-04-09T07:30:12;101589.94;;;7.84;74.93
12360;BME280;6244;51.460;7.090;2023-04-09T07:35:10;101590.91;;;8.14;74.80
12360;BME280;6244;51.460;7.090;2023-04-09T07:40:07;101584.63;;;8.54;71.66
12360;BME280;6244;51.460;7.090;2023-04-09T07:45:05;101584.97;;;9.02;70.19
12360;BME280;6244;51.460;7.090;2023-04-09T07:50:02;101588.53;;;9.57;67.79
12360;BME280;6244;51.460;7.090;2023-04-09T07:55:00;101584.94;;;10.13;61.38
12360;BME280;6244;51.460;7.090;2023-04-09T07:59:56;101571.38;;;10.98;61.84
12360;BME280;6244;51.460;7.090;2023-04-09T08:04:53;101579.69;;;12.38;54.53
12360;BME280;6244;51.460;7.090;2023-04-09T08:09:49;101574.53;;;13.32;48.96
12360;BME280;6244;51.460;7.090;2023-04-09T08:14:47;101566.72;;;14.68;47.39
12360;BME280;6244;51.460;7.090;2023-04-09T08:19:44;101563.44;;;15.90;43.99
12360;BME280;6244;51.460;7.090;2023-04-09T08:24:40;101567.50;;;16.25;43.39
12360;BME280;6244;51.460;7.090;2023-04-09T08:29:38;101562.97;;;17.13;40.68
12360;BME280;6244;51.460;7.090;2023-04-09T08:34:36;101564.19;;;17.75;36.91
12360;BME280;6244;51.460;7.090;2023-04-09T08:39:33;101557.44;;;18.22;37.78
12360;BME280;6244;51.460;7.090;2023-04-09T08:44:30;101555.97;;;18.82;33.98
12360;BME280;6244;51.460;7.090;2023-04-09T08:49:27;101558.47;;;17.81;34.04
12360;BME280;6244;51.460;7.090;2023-04-09T08:54:25;101566.84;;;17.61;38.34
12360;BME280;6244;51.460;7.090;2023-04-09T08:59:21;101560.66;;;17.48;36.19
12360;BME280;6244;51.460;7.090;2023-04-09T09:04:18;101552.19;;;16.73;36.53
12360;BME280;6244;51.460;7.090;2023-04-09T09:09:16;101554.28;;;16.39;32.54
12360;BME280;6244;51.460;7.090;2023-04-09T09:14:16;101560.63;;;16.65;34.08
12360;BME280;6244;51.460;7.090;2023-04-09T09:19:28;101558.16;;;16.91;33.57
12360;BME280;6244;51.460;7.090;2023-04-09T09:24:25;101549.13;;;17.49;33.43
12360;BME280;6244;51.460;7.090;2023-04-09T09:29:23;101549.53;;;16.59;33.89
12360;BME280;6244;51.460;7.090;2023-04-09T09:34:21;101534.28;;;16.48;33.78
12360;BME280;6244;51.460;7.090;2023-04-09T09:39:18;101536.22;;;17.16;33.02
12360;BME280;6244;51.460;7.090;2023-04-09T09:44:31;101524.63;;;18.48;31.63
12360;BME280;6244;51.460;7.090;2023-04-09T09:49:28;101525.41;;;19.48;29.96
12360;BME280;6244;51.460;7.090;2023-04-09T09:54:25;101525.47;;;18.11;30.90
12360;BME280;6244;51.460;7.090;2023-04-09T09:59:29;101522.44;;;17.38;32.00
12360;BME280;6244;51.460;7.090;2023-04-09T10:04:32;101520.53;;;16.98;32.01
12360;BME280;6244;51.460;7.090;2023-04-09T10:09:30;101511.88;;;16.39;36.66
12360;BME280;6244;51.460;7.090;2023-04-09T10:14:27;101519.81;;;17.50;32.54
12360;BME280;6244;51.460;7.090;2023-04-09T10:19:24;101514.53;;;16.82;35.50
12360;BME280;6244;51.460;7.090;2023-04-09T10:24:23;101511.81;;;15.82;35.52
12360;BME280;6244;51.460;7.090;2023-04-09T10:29:27;101493.91;;;15.72;34.70
12360;BME280;6244;51.460;7.090;2023-04-09T10:34:26;101494.38;;;15.48;35.51
12360;BME280;6244;51.460;7.090;2023-04-09T10:39:26;101495.97;;;17.09;35.40
12360;BME280;6244;51.460;7.090;2023-04-09T10:44:24;101482.97;;;19.57;27.53
12360;BME280;6244;51.460;7.090;2023-04-09T10:49:22;101488.28;;;18.24;29.93
12360;BME280;6244;51.460;7.090;2023-04-09T10:54:42;101480.34;;;18.86;29.53
12360;BME280;6244;51.460;7.090;2023-04-09T10:59:41;101491.25;;;19.18;29.07
12360;BME280;6244;51.460;7.090;2023-04-09T11:04:47;101486.13;;;19.27;31.11
12360;BME280;6244;51.460;7.090;2023-04-09T11:09:52;101479.78;;;18.06;27.77
12360;BME280;6244;51.460;7.090;2023-04-09T11:14:48;101475.16;;;16.48;31.10
12360;BME280;6244;51.460;7.090;2023-04-09T11:19:45;101431.53;;;16.53;36.42
12360;BME280;6244;51.460;7.090;2023-04-09T11:24:42;101469.66;;;16.79;32.95
12360;BME280;6244;51.460;7.090;2023-04-09T11:29:42;101461.44;;;15.98;32.80
12360;BME280;6244;51.460;7.090;2023-04-09T11:34:38;101467.75;;;15.21;39.84
12360;BME280;6244;51.460;7.090;2023-04-09T11:39:35;101462.06;;;16.87;32.29
12360;BME280;6244;51.460;7.090;2023-04-09T11:44:32;101456.53;;;16.21;32.16
12360;BME280;6244;51.460;7.090;2023-04-09T11:49:30;101446.03;;;15.91;35.73
12360;BME280;6244;51.460;7.090;2023-04-09T11:54:30;101450.66;;;15.57;37.54
12360;BME280;6244;51.460;7.090;2023-04-09T11:59:27;101455.41;;;14.75;41.41
12360;BME280;6244;51.460;7.090;2023-04-09T12:04:23;101448.41;;;14.09;42.16
12360;BME280;6244;51.460;7.090;2023-04-09T12:09:21;101447.19;;;16.01;35.48
12360;BME280;6244;51.460;7.090;2023-04-09T12:14:20;101452.81;;;17.74;30.12
12360;BME280;6244;51.460;7.090;2023-04-09T12:19:17;101436.31;;;18.19;30.97
12360;BME280;6244;51.460;7.090;2023-04-09T12:24:15;101450.78;;;18.03;32.51
12360;BME280;6244;51.460;7.090;2023-04-09T12:29:14;101445.06;;;17.44;31.41
12360;BME280;6244;51.460;7.090;2023-04-09T12:34:11;101453.25;;;16.17;33.47
12360;BME280;6244;51.460;7.090;2023-04-09T12:39:07;101438.94;;;16.34;32.45
12360;BME280;6244;51.460;7.090;2023-04-09T12:44:04;101434.25;;;16.66;34.96
12360;BME280;6244;51.460;7.090;2023-04-09T12:49:03;101432.72;;;16.62;38.35
12360;BME280;6244;51.460;7.090;2023-04-09T12:54:00;101434.69;;;16.31;36.05
12360;BME280;6244;51.460;7.090;2023-04-09T12:58:58;101431.75;;;16.22;36.62
12360;BME280;6244;51.460;7.090;2023-04-09T13:03:55;101431.91;;;15.62;35.33
12360;BME280;6244;51.460;7.090;2023-04-09T13:08:52;101435.47;;;15.31;39.20
12360;BME280;6244;51.460;7.090;2023-04-09T13:13:49;101424.25;;;15.71;41.21
12360;BME280;6244;51.460;7.090;2023-04-09T13:18:46;101426.56;;;15.77;34.61
12360;BME280;6244;51.460;7.090;2023-04-09T13:23:42;101420.13;;;15.67;33.49
12360;BME280;6244;51.460;7.090;2023-04-09T13:28:40;101418.94;;;15.57;33.86
12360;BME280;6244;51.460;7.090;2023-04-09T13:33:37;101409.03;;;15.75;36.45
12360;BME280;6244;51.460;7.090;2023-04-09T13:38:34;101415.47;;;15.71;38.43
12360;BME280;6244;51.460;7.090;2023-04-09T13:43:31;101416.28;;;15.57;37.05
12360;BME280;6244;51.460;7.090;2023-04-09T13:48:29;101412.53;;;15.31;40.95
12360;BME280;6244;51.460;7.090;2023-04-09T13:53:25;101407.06;;;15.04;38.61
12360;BME280;6244;51.460;7.090;2023-04-09T13:58:22;101398.38;;;15.02;42.56
12360;BME280;6244;51.460;7.090;2023-04-09T14:03:18;101399.88;;;15.36;38.30
12360;BME280;6244;51.460;7.090;2023-04-09T14:08:17;101391.56;;;15.86;40.32
12360;BME280;6244;51.460;7.090;2023-04-09T14:13:13;101395.00;;;16.03;35.94
12360;BME280;6244;51.460;7.090;2023-04-09T14:18:10;101385.72;;;15.96;34.93
12360;BME280;6244;51.460;7.090;2023-04-09T14:23:06;101377.19;;;15.62;37.62
12360;BME280;6244;51.460;7.090;2023-04-09T14:28:04;101381.41;;;15.50;34.96
12360;BME280;6244;51.460;7.090;2023-04-09T14:33:01;101369.22;;;15.48;34.86
12360;BME280;6244;51.460;7.090;2023-04-09T14:37:57;101366.72;;;15.75;33.74
12360;BME280;6244;51.460;7.090;2023-04-09T14:42:55;101357.78;;;15.47;34.27
12360;BME280;6244;51.460;7.090;2023-04-09T14:47:53;101359.34;;;15.66;36.17
12360;BME280;6244;51.460;7.090;2023-04-09T14:52:50;101358.81;;;15.45;37.50
12360;BME280;6244;51.460;7.090;2023-04-09T14:57:46;101356.25;;;14.99;35.69
12360;BME280;6244;51.460;7.090;2023-04-09T15:02:43;101359.06;;;14.96;37.45
12360;BME280;6244;51.460;7.090;2023-04-09T15:07:41;101354.69;;;15.11;35.46
12360;BME280;6244;51.460;7.090;2023-04-09T15:12:37;101345.00;;;15.25;38.07
12360;BME280;6244;51.460;7.090;2023-04-09T15:17:34;101335.06;;;15.15;38.68
12360;BME280;6244;51.460;7.090;2023-04-09T15:22:31;101341.81;;;14.75;41.47
12360;BME280;6244;51.460;7.090;2023-04-09T15:27:28;101344.06;;;14.51;42.43
12360;BME280;6244;51.460;7.090;2023-04-09T15:32:25;101348.56;;;14.49;41.34
12360;BME280;6244;51.460;7.090;2023-04-09T15:37:21;101333.38;;;15.14;39.25
12360;BME280;6244;51.460;7.090;2023-04-09T15:42:18;101336.13;;;14.96;39.80
12360;BME280;6244;51.460;7.090;2023-04-09T15:47:18;101336.03;;;14.36;42.79
12360;BME280;6244;51.460;7.090;2023-04-09T15:52:14;101330.34;;;14.28;41.60
12360;BME280;6244;51.460;7.090;2023-04-09T15:57:11;101330.84;;;14.19;42.25
12360;BME280;6244;51.460;7.090;2023-04-09T16:02:08;101325.13;;;14.11;41.96
12360;BME280;6244;51.460;7.090;2023-04-09T16:07:06;101320.47;;;14.48;42.55
12360;BME280;6244;51.460;7.090;2023-04-09T16:12:05;101333.19;;;14.87;39.62
12360;BME280;6244;51.460;7.090;2023-04-09T16:17:01;101331.19;;;14.76;40.95
12360;BME280;6244;51.460;7.090;2023-04-09T16:21:58;101327.31;;;14.82;39.21
12360;BME280;6244;51.460;7.090;2023-04-09T16:26:56;101329.97;;;14.82;36.87
12360;BME280;6244;51.460;7.090;2023-04-09T16:31:52;101318.00;;;14.90;38.97
12360;BME280;6244;51.460;7.090;2023-04-09T16:36:49;101319.53;;;14.64;36.65
12360;BME280;6244;51.460;7.090;2023-04-09T16:41:46;101314.06;;;14.67;36.75
12360;BME280;6244;51.460;7.090;2023-04-09T16:46:44;101300.88;;;14.52;36.35
12360;BME280;6244;51.460;7.090;2023-04-09T16:51:41;101295.84;;;14.31;39.49
12360;BME280;6244;51.460;7.090;2023-04-09T16:56:38;101293.47;;;14.11;38.43
12360;BME280;6244;51.460;7.090;2023-04-09T17:01:34;101282.47;;;13.87;40.34
12360;BME280;6244;51.460;7.090;2023-04-09T17:06:32;101289.34;;;13.74;40.76
12360;BME280;6244;51.460;7.090;2023-04-09T17:11:29;101279.88;;;13.54;39.38
12360;BME280;6244;51.460;7.090;2023-04-09T17:16:26;101287.59;;;13.41;40.92
12360;BME280;6244;51.460;7.090;2023-04-09T17:21:23;101284.97;;;13.24;39.85
12360;BME280;6244;51.460;7.090;2023-04-09T17:26:22;101293.13;;;13.19;40.45
12360;BME280;6244;51.460;7.090;2023-04-09T17:31:19;101297.72;;;13.14;39.93
12360;BME280;6244;51.460;7.090;2023-04-09T17:36:18;101300.22;;;13.00;40.59
12360;BME280;6244;51.460;7.090;2023-04-09T17:41:15;101307.22;;;12.84;41.28
12360;BME280;6244;51.460;7.090;2023-04-09T17:46:13;101311.22;;;12.74;41.52
12360;BME280;6244;51.460;7.090;2023-04-09T17:51:12;101308.34;;;12.61;42.28
12360;BME280;6244;51.460;7.090;2023-04-09T17:56:14;101312.72;;;12.43;42.60
12360;BME280;6244;51.460;7.090;2023-04-09T18:01:12;101309.59;;;12.35;42.91
12360;BME280;6244;51.460;7.090;2023-04-09T18:06:09;101313.66;;;12.23;44.03
12360;BME280;6244;51.460;7.090;2023-04-09T18:11:05;101318.44;;;12.15;43.65
12360;BME280;6244;51.460;7.090;2023-04-09T18:16:02;101317.09;;;12.07;42.89
12360;BME280;6244;51.460;7.090;2023-04-09T18:21:00;101323.63;;;11.98;43.84
12360;BME280;6244;51.460;7.090;2023-04-09T18:25:57;101319.72;;;11.88;43.98
12360;BME280;6244;51.460;7.090;2023-04-09T18:30:53;101327.81;;;11.83;45.79
12360;BME280;6244;51.460;7.090;2023-04-09T18:35:50;101329.34;;;11.68;45.13
12360;BME280;6244;51.460;7.090;2023-04-09T18:40:48;101332.91;;;11.67;45.38
12360;BME280;6244;51.460;7.090;2023-04-09T18:45:44;101327.38;;;11.53;45.26
12360;BME280;6244;51.460;7.090;2023-04-09T18:50:41;101330.69;;;11.58;45.99
12360;BME280;6244;51.460;7.090;2023-04-09T18:55:37;101330.88;;;11.54;46.09
12360;BME280;6244;51.460;7.090;2023-04-09T19:00:35;101326.88;;;11.45;48.28
12360;BME280;6244;51.460;7.090;2023-04-09T19:05:34;101322.88;;;11.36;49.61
12360;BME280;6244;51.460;7.090;2023-04-09T19:10:30;101327.88;;;11.22;48.64
12360;BME280;6244;51.460;7.090;2023-04-09T19:15:27;101324.31;;;11.23;49.48
12360;BME280;6244;51.460;7.090;2023-04-09T19:20:26;101332.47;;;11.17;51.24
12360;BME280;6244;51.460;7.090;2023-04-09T19:25:23;101323.47;;;11.02;50.48
12360;BME280;6244;51.460;7.090;2023-04-09T19:30:19;101323.28;;;11.07;49.67
12360;BME280;6244;51.460;7.090;2023-04-09T19:35:16;101326.16;;;11.01;50.84
12360;BME280;6244;51.460;7.090;2023-04-09T19:40:13;101333.75;;;10.86;51.10
12360;BME280;6244;51.460;7.090;2023-04-09T19:45:13;101331.63;;;10.74;51.60
12360;BME280;6244;51.460;7.090;2023-04-09T19:50:10;101334.19;;;10.76;50.53
12360;BME280;6244;51.460;7.090;2023-04-09T19:55:07;101337.75;;;10.75;48.72
12360;BME280;6244;51.460;7.090;2023-04-09T20:00:10;101329.16;;;10.71;51.22
12360;BME280;6244;51.460;7.090;2023-04-09T20:05:07;101324.97;;;10.66;50.01
12360;BME280;6244;51.460;7.090;2023-04-09T20:10:05;101326.75;;;10.65;50.40
12360;BME280;6244;51.460;7.090;2023-04-09T20:15:02;101333.25;;;10.56;51.60
12360;BME280;6244;51.460;7.090;2023-04-09T20:20:00;101329.28;;;10.46;51.98
12360;BME280;6244;51.460;7.090;2023-04-09T20:24:56;101325.72;;;10.25;52.15
12360;BME280;6244;51.460;7.090;2023-04-09T20:29:54;101321.63;;;10.17;52.35
12360;BME280;6244;51.460;7.090;2023-04-09T20:34:50;101319.69;;;10.23;53.29
12360;BME280;6244;51.460;7.090;2023-04-09T20:39:48;101323.38;;;10.18;53.19
12360;BME280;6244;51.460;7.090;2023-04-09T20:44:44;101314.22;;;9.83;52.48
12360;BME280;6244;51.460;7.090;2023-04-09T20:49:41;101308.88;;;9.86;51.20
12360;BME280;6244;51.460;7.090;2023-04-09T20:54:38;101306.81;;;9.70;53.02
12360;BME280;6244;51.460;7.090;2023-04-09T20:59:36;101300.88;;;9.89;52.02
12360;BME280;6244;51.460;7.090;2023-04-09T21:04:32;101297.97;;;9.96;52.18
12360;BME280;6244;51.460;7.090;2023-04-09T21:09:29;101300.13;;;10.09;50.73
12360;BME280;6244;51.460;7.090;2023-04-09T21:14:25;101292.31;;;10.07;49.86
12360;BME280;6244;51.460;7.090;2023-04-09T21:19:23;101294.56;;;9.94;49.58
12360;BME280;6244;51.460;7.090;2023-04-09T21:24:20;101279.63;;;9.96;50.84
12360;BME280;6244;51.460;7.090;2023-04-09T21:29:17;101284.06;;;9.94;50.54
12360;BME280;6244;51.460;7.090;2023-04-09T21:34:13;101285.94;;;9.91;52.32
12360;BME280;6244;51.460;7.090;2023-04-09T21:39:11;101285.78;;;9.72;52.11
12360;BME280;6244;51.460;7.090;2023-04-09T21:44:08;101289.09;;;9.77;52.68
12360;BME280;6244;51.460;7.090;2023-04-09T21:49:04;101284.22;;;9.68;51.77
12360;BME280;6244;51.460;7.090;2023-04-09T21:54:02;101284.22;;;9.68;51.45
12360;BME280;6244;51.460;7.090;2023-04-09T21:59:01;101274.53;;;9.70;51.89
12360;BME280;6244;51.460;7.090;2023-04-09T22:03:58;101277.81;;;9.75;52.44
12360;BME280;6244;51.460;7.090;2023-04-09T22:08:55;101268.91;;;9.79;52.11
12360;BME280;6244;51.460;7.090;2023-04-09T22:13:52;101256.25;;;9.67;51.88
12360;BME280;6244;51.460;7.090;2023-04-09T22:18:50;101262.84;;;9.55;51.94
12360;BME280;6244;51.460;7.090;2023-04-09T22:23:47;101267.22;;;9.31;52.07
12360;BME280;6244;51.460;7.090;2023-04-09T22:28:44;101280.31;;;9.31;52.51
12360;BME280;6244;51.460;7.090;2023-04-09T22:33:40;101284.16;;;9.21;54.14
12360;BME280;6244;51.460;7.090;2023-04-09T22:38:38;101287.41;;;9.28;53.70
12360;BME280;6244;51.460;7.090;2023-04-09T22:43:34;101295.00;;;9.35;53.55
12360;BME280;6244;51.460;7.090;2023-04-09T22:48:31;101306.28;;;9.37;53.05
12360;BME280;6244;51.460;7.090;2023-04-09T22:53:27;101310.53;;;9.15;54.89
12360;BME280;6244;51.460;7.090;2023-04-09T22:58:25;101311.19;;;8.97;56.00
12360;BME280;6244;51.460;7.090;2023-04-09T23:03:22;101308.28;;;9.04;56.24
12360;BME280;6244;51.460;7.090;2023-04-09T23:08:18;101306.28;;;9.12;56.34
12360;BME280;6244;51.460;7.090;2023-04-09T23:13:15;101294.75;;;9.18;55.61
12360;BME280;6244;51.460;7.090;2023-04-09T23:18:13;101304.88;;;9.02;56.63
12360;BME280;6244;51.460;7.090;2023-04-09T23:23:10;101304.88;;;9.02;56.40
12360;BME280;6244;51.460;7.090;2023-04-09T23:28:06;101306.47;;;8.81;57.27
12360;BME280;6244;51.460;7.090;2023-04-09T23:33:03;101294.75;;;8.93;57.04
12360;BME280;6244;51.460;7.090;2023-04-09T23:38:01;101291.94;;;8.73;57.58
12360;BME280;6244;51.460;7.090;2023-04-09T23:42:57;101301.66;;;8.69;57.83
12360;BME280;6244;51.460;7.090;2023-04-09T23:47:53;101300.22;;;8.59;57.79
12360;BME280;6244;51.460;7.090;2023-04-09T23:52:50;101287.31;;;8.81;56.24
12360;BME280;6244;51.460;7.090;2023-04-09T23:57:49;101286.81;;;8.70;55.43
